createdAt,value
2022-12-06T00:00:09.797Z,2.90
2022-12-06T00:01:19.345Z,4.20
2022-12-06T00:02:25.539Z,3.00
2022-12-06T00:03:30.881Z,3.00
2022-12-06T00:04:36.994Z,3.10
2022-12-06T00:05:44.703Z,3.00
2022-12-06T00:06:52.982Z,3.00
2022-12-06T00:08:01.031Z,3.00
2022-12-06T00:09:11.115Z,3.20
2022-12-06T00:10:16.104Z,3.10
2022-12-06T00:11:23.080Z,3.10
2022-12-06T00:12:26.187Z,3.10
2022-12-06T00:13:31.409Z,3.10
2022-12-06T00:14:37.327Z,3.10
2022-12-06T00:15:40.139Z,3.10
2022-12-06T00:16:43.883Z,3.10
2022-12-06T00:17:46.272Z,3.40
2022-12-06T00:18:50.493Z,3.10
2022-12-06T00:19:55.899Z,3.50
2022-12-06T00:21:08.295Z,3.10
2022-12-06T00:22:11.626Z,3.00
2022-12-06T00:23:15.047Z,3.10
2022-12-06T00:24:21.871Z,3.10
2022-12-06T00:25:24.748Z,3.20
2022-12-06T00:26:30.106Z,3.00
2022-12-06T00:27:32.642Z,3.00
2022-12-06T00:28:37.594Z,3.00
2022-12-06T00:29:40.076Z,3.10
2022-12-06T00:30:43.777Z,3.10
2022-12-06T00:31:55.672Z,3.40
2022-12-06T00:32:59.858Z,3.10
2022-12-06T00:34:04.235Z,3.10
2022-12-06T00:35:17.997Z,3.10
2022-12-06T00:36:22.254Z,4.30
2022-12-06T00:37:25.745Z,3.10
2022-12-06T00:38:34.016Z,3.00
2022-12-06T00:39:39.116Z,3.00
2022-12-06T00:40:41.897Z,3.00
2022-12-06T00:41:46.523Z,3.00
2022-12-06T00:42:48.934Z,3.00
2022-12-06T00:43:54.674Z,3.00
2022-12-06T00:45:05.394Z,3.00
2022-12-06T00:46:12.605Z,3.00
2022-12-06T00:47:14.888Z,3.00
2022-12-06T00:48:18.246Z,2.30
2022-12-06T00:49:21.983Z,3.00
2022-12-06T00:50:29.826Z,3.00
2022-12-06T00:51:35.322Z,3.00
2022-12-06T00:52:39.177Z,3.00
2022-12-06T00:53:42.386Z,3.00
2022-12-06T00:54:51.713Z,3.10
2022-12-06T00:55:55.470Z,3.10
2022-12-06T00:56:59.095Z,3.10
2022-12-06T00:58:01.477Z,3.10
2022-12-06T00:59:06.245Z,3.10
2022-12-06T01:00:09.976Z,3.20
2022-12-06T01:01:16.058Z,3.20
2022-12-06T01:02:19.786Z,3.20
2022-12-06T01:03:23.256Z,3.20
2022-12-06T01:04:26.866Z,3.30
2022-12-06T01:05:30.653Z,3.30
2022-12-06T01:06:36.002Z,2.00
2022-12-06T01:07:38.938Z,3.40
2022-12-06T01:08:42.874Z,3.30
2022-12-06T01:09:46.868Z,3.30
2022-12-06T01:10:56.627Z,3.30
2022-12-06T01:12:00.006Z,3.40
2022-12-06T01:13:02.927Z,3.30
2022-12-06T01:14:07.328Z,3.20
2022-12-06T01:15:13.326Z,3.20
2022-12-06T01:16:19.785Z,3.20
2022-12-06T01:17:22.144Z,4.80
2022-12-06T01:18:26.057Z,3.30
2022-12-06T01:19:28.484Z,2.80
2022-12-06T01:20:31.989Z,3.30
2022-12-06T01:21:35.698Z,3.30
2022-12-06T01:22:39.064Z,3.30
2022-12-06T01:23:47.203Z,3.20
2022-12-06T01:24:52.322Z,3.20
2022-12-06T01:25:54.986Z,3.10
2022-12-06T01:26:58.551Z,3.10
2022-12-06T01:28:00.833Z,3.10
2022-12-06T01:29:05.541Z,3.10
2022-12-06T01:30:09.067Z,3.00
2022-12-06T01:31:16.742Z,3.00
2022-12-06T01:32:25.118Z,3.10
2022-12-06T01:33:28.579Z,3.10
2022-12-06T01:34:32.187Z,3.10
2022-12-06T01:35:44.925Z,3.10
2022-12-06T01:36:48.482Z,3.00
2022-12-06T01:37:50.862Z,3.00
2022-12-06T01:38:57.025Z,3.00
2022-12-06T01:40:10.382Z,3.00
2022-12-06T01:41:13.624Z,3.00
2022-12-06T01:42:16.610Z,3.00
2022-12-06T01:43:39.166Z,3.00
2022-12-06T01:44:45.497Z,3.10
2022-12-06T01:45:49.075Z,3.00
2022-12-06T01:46:52.128Z,3.00
2022-12-06T01:47:56.287Z,3.00
2022-12-06T01:49:09.407Z,3.00
2022-12-06T01:50:20.575Z,3.00
2022-12-06T01:51:25.580Z,2.90
2022-12-06T01:52:39.116Z,2.90
2022-12-06T01:53:50.004Z,2.80
2022-12-06T01:54:56.134Z,2.80
2022-12-06T01:56:00.508Z,2.80
2022-12-06T01:57:08.322Z,2.80
2022-12-06T01:58:18.021Z,2.80
2022-12-06T01:59:23.074Z,2.80
2022-12-06T02:00:30.273Z,2.80
2022-12-06T02:01:35.556Z,2.80
2022-12-06T02:02:39.617Z,2.90
2022-12-06T02:03:46.124Z,2.90
2022-12-06T02:04:50.789Z,2.90
2022-12-06T02:06:00.976Z,2.90
2022-12-06T02:07:05.440Z,3.00
2022-12-06T02:08:10.171Z,2.60
2022-12-06T02:09:17.312Z,3.20
2022-12-06T02:10:19.802Z,3.00
2022-12-06T02:11:32.079Z,3.00
2022-12-06T02:12:37.278Z,3.10
2022-12-06T02:13:42.604Z,3.10
2022-12-06T02:14:52.036Z,3.10
2022-12-06T02:16:09.272Z,3.00
2022-12-06T02:17:32.282Z,3.00
2022-12-06T02:18:41.652Z,3.00
2022-12-06T02:20:13.568Z,3.00
2022-12-06T02:21:29.238Z,3.00
2022-12-06T02:23:01.705Z,3.10
2022-12-06T02:24:53.335Z,3.10
2022-12-06T02:26:35.211Z,4.10
2022-12-06T02:28:19.564Z,3.00
2022-12-06T02:30:03.280Z,3.00
2022-12-06T02:31:16.154Z,2.90
2022-12-06T02:32:26.970Z,2.90
2022-12-06T02:33:37.525Z,2.90
2022-12-06T02:34:47.017Z,3.00
2022-12-06T02:35:59.200Z,3.00
2022-12-06T02:37:11.014Z,3.10
2022-12-06T02:38:20.287Z,3.00
2022-12-06T02:39:27.723Z,3.10
2022-12-06T02:40:39.861Z,3.10
2022-12-06T02:41:50.079Z,3.20
2022-12-06T02:42:58.890Z,3.10
2022-12-06T02:44:06.676Z,3.10
2022-12-06T02:45:15.403Z,3.10
2022-12-06T02:46:29.897Z,3.10
2022-12-06T02:47:37.606Z,3.20
2022-12-06T02:48:43.094Z,3.20
2022-12-06T02:49:50.916Z,3.10
2022-12-06T02:50:57.800Z,3.10
2022-12-06T02:52:02.451Z,3.10
2022-12-06T02:53:11.847Z,3.00
2022-12-06T02:54:17.393Z,3.00
2022-12-06T02:55:30.078Z,3.00
2022-12-06T02:56:35.785Z,3.00
2022-12-06T02:57:43.451Z,3.00
2022-12-06T02:58:47.002Z,3.10
2022-12-06T02:59:52.956Z,3.20
2022-12-06T03:01:00.865Z,3.20
2022-12-06T03:02:12.306Z,3.20
2022-12-06T03:03:32.952Z,3.30
2022-12-06T03:04:53.364Z,3.30
2022-12-06T03:06:23.427Z,3.30
2022-12-06T03:07:37.420Z,3.30
2022-12-06T03:08:53.952Z,3.30
2022-12-06T03:10:15.253Z,3.30
2022-12-06T03:11:18.317Z,3.20
2022-12-06T03:12:34.230Z,3.20
2022-12-06T03:13:53.530Z,3.20
2022-12-06T03:15:10.766Z,3.30
2022-12-06T03:16:24.823Z,3.20
2022-12-06T03:17:39.672Z,3.20
2022-12-06T03:18:49.860Z,3.20
2022-12-06T03:20:03.885Z,5.20
2022-12-06T03:21:11.574Z,3.20
2022-12-06T03:22:23.688Z,3.30
2022-12-06T03:23:40.637Z,3.20
2022-12-06T03:24:47.092Z,3.20
2022-12-06T03:25:53.451Z,3.20
2022-12-06T03:27:01.448Z,3.20
2022-12-06T03:28:11.694Z,3.20
2022-12-06T03:29:22.553Z,3.10
2022-12-06T03:30:25.002Z,4.70
2022-12-06T03:31:37.060Z,3.20
2022-12-06T03:32:49.225Z,3.20
2022-12-06T03:34:04.758Z,3.20
2022-12-06T03:35:23.387Z,2.40
2022-12-06T03:36:38.876Z,3.30
2022-12-06T03:37:56.183Z,3.30
2022-12-06T03:39:10.063Z,3.40
2022-12-06T03:40:29.084Z,3.30
2022-12-06T03:41:45.464Z,3.30
2022-12-06T03:42:57.746Z,3.30
2022-12-06T03:44:12.313Z,3.30
2022-12-06T03:45:42.393Z,3.30
2022-12-06T03:46:58.823Z,3.30
2022-12-06T03:48:14.295Z,3.30
2022-12-06T03:49:26.605Z,3.30
2022-12-06T03:50:52.991Z,3.30
2022-12-06T03:52:05.707Z,3.30
2022-12-06T03:53:19.447Z,3.40
2022-12-06T03:54:31.741Z,3.40
2022-12-06T03:55:56.636Z,3.40
2022-12-06T03:57:10.363Z,3.50
2022-12-06T03:58:23.403Z,3.50
2022-12-06T03:59:31.384Z,3.50
2022-12-06T04:00:44.375Z,3.50
2022-12-06T04:01:56.782Z,3.40
2022-12-06T04:03:10.438Z,3.30
2022-12-06T04:04:28.994Z,3.50
2022-12-06T04:05:40.071Z,3.40
2022-12-06T04:06:56.154Z,3.40
2022-12-06T04:08:09.920Z,3.40
2022-12-06T04:09:38.066Z,3.40
2022-12-06T04:10:50.916Z,3.40
2022-12-06T04:12:05.518Z,3.50
2022-12-06T04:13:19.620Z,3.50
2022-12-06T04:14:39.364Z,3.50
2022-12-06T04:16:00.490Z,3.50
2022-12-06T04:17:26.699Z,3.50
2022-12-06T04:18:41.801Z,3.50
2022-12-06T04:19:55.400Z,3.50
2022-12-06T04:21:25.211Z,3.50
2022-12-06T04:22:49.497Z,3.40
2022-12-06T04:23:59.634Z,3.30
2022-12-06T04:25:13.337Z,3.40
2022-12-06T04:26:28.278Z,3.30
2022-12-06T04:28:04.951Z,3.30
2022-12-06T04:29:25.983Z,3.20
2022-12-06T04:30:46.791Z,3.10
2022-12-06T04:32:07.655Z,3.10
2022-12-06T04:33:28.337Z,3.10
2022-12-06T04:34:50.724Z,3.10
2022-12-06T04:36:15.310Z,3.20
2022-12-06T04:37:37.080Z,3.40
2022-12-06T04:38:41.576Z,3.10
2022-12-06T04:39:45.077Z,3.00
2022-12-06T04:40:48.395Z,3.20
2022-12-06T04:42:09.631Z,3.00
2022-12-06T04:43:30.286Z,3.10
2022-12-06T04:44:34.003Z,3.10
2022-12-06T04:45:36.428Z,3.10
2022-12-06T04:46:40.305Z,3.20
2022-12-06T04:47:42.932Z,3.20
2022-12-06T04:48:46.426Z,3.20
2022-12-06T04:49:51.140Z,3.20
2022-12-06T04:50:53.609Z,4.50
2022-12-06T04:51:58.329Z,3.30
2022-12-06T04:53:00.612Z,3.60
2022-12-06T04:54:07.345Z,3.30
2022-12-06T04:55:11.161Z,3.30
2022-12-06T04:56:13.671Z,3.20
2022-12-06T04:57:19.568Z,3.20
2022-12-06T04:58:21.869Z,3.20
2022-12-06T04:59:25.834Z,3.20
2022-12-06T05:00:28.228Z,3.10
2022-12-06T05:01:31.556Z,3.10
2022-12-06T05:02:36.648Z,3.10
2022-12-06T05:03:44.181Z,3.10
2022-12-06T05:04:47.969Z,2.70
2022-12-06T05:05:52.638Z,3.10
2022-12-06T05:06:56.179Z,3.10
2022-12-06T05:07:59.757Z,3.10
2022-12-06T05:09:02.282Z,3.10
2022-12-06T05:10:10.081Z,3.20
2022-12-06T05:11:12.392Z,3.20
2022-12-06T05:12:15.667Z,3.20
2022-12-06T05:13:20.302Z,3.20
2022-12-06T05:14:24.153Z,3.20
2022-12-06T05:15:29.325Z,3.20
2022-12-06T05:16:33.081Z,3.30
2022-12-06T05:17:35.731Z,3.20
2022-12-06T05:18:39.382Z,3.20
2022-12-06T05:19:42.743Z,3.10
2022-12-06T05:20:45.336Z,3.10
2022-12-06T05:21:52.556Z,3.10
2022-12-06T05:22:54.854Z,3.10
2022-12-06T05:23:58.999Z,3.10
2022-12-06T05:25:01.355Z,3.20
2022-12-06T05:26:07.131Z,3.10
2022-12-06T05:27:09.616Z,3.20
2022-12-06T05:28:13.234Z,3.20
2022-12-06T05:29:15.759Z,3.20
2022-12-06T05:30:19.423Z,4.80
2022-12-06T05:31:22.898Z,3.20
2022-12-06T05:32:26.610Z,3.20
2022-12-06T05:33:29.403Z,3.20
2022-12-06T05:34:33.169Z,3.20
2022-12-06T05:35:35.658Z,3.20
2022-12-06T05:36:48.633Z,3.20
2022-12-06T05:37:52.407Z,3.20
2022-12-06T05:38:55.843Z,3.30
2022-12-06T05:39:58.654Z,3.30
2022-12-06T05:41:02.196Z,3.30
2022-12-06T05:42:08.175Z,3.30
2022-12-06T05:43:14.129Z,3.30
2022-12-06T05:44:17.678Z,3.30
2022-12-06T05:45:20.436Z,3.30
2022-12-06T05:46:23.857Z,3.30
2022-12-06T05:47:26.386Z,3.30
2022-12-06T05:48:29.846Z,3.30
2022-12-06T05:49:33.434Z,3.30
2022-12-06T05:50:36.904Z,4.60
2022-12-06T05:51:40.819Z,3.40
2022-12-06T05:52:43.071Z,3.40
2022-12-06T05:53:50.051Z,2.60
2022-12-06T05:54:52.511Z,3.30
2022-12-06T05:55:55.986Z,3.20
2022-12-06T05:56:58.399Z,3.20
2022-12-06T05:58:01.684Z,3.20
2022-12-06T05:59:04.073Z,3.20
2022-12-06T06:00:08.608Z,3.20
2022-12-06T06:01:12.087Z,3.20
2022-12-06T06:02:14.437Z,3.10
2022-12-06T06:03:19.339Z,3.10
2022-12-06T06:04:21.896Z,3.00
2022-12-06T06:05:25.420Z,3.00
2022-12-06T06:06:29.226Z,2.90
2022-12-06T06:07:31.878Z,2.90
2022-12-06T06:08:35.181Z,3.70
2022-12-06T06:09:39.125Z,2.90
2022-12-06T06:10:42.566Z,3.00
2022-12-06T06:11:45.032Z,2.90
2022-12-06T06:12:48.408Z,2.80
2022-12-06T06:13:50.862Z,2.80
2022-12-06T06:15:05.257Z,2.90
2022-12-06T06:16:08.347Z,2.90
2022-12-06T06:17:14.624Z,2.90
2022-12-06T06:18:18.848Z,3.00
2022-12-06T06:19:23.898Z,3.00
2022-12-06T06:20:27.303Z,3.00
2022-12-06T06:21:30.808Z,2.90
2022-12-06T06:22:37.340Z,3.00
2022-12-06T06:23:41.056Z,3.00
2022-12-06T06:24:44.710Z,3.10
2022-12-06T06:25:48.614Z,3.10
2022-12-06T06:26:53.724Z,3.10
2022-12-06T06:27:57.204Z,4.60
2022-12-06T06:28:59.647Z,4.20
2022-12-06T06:30:03.411Z,3.20
2022-12-06T06:31:06.892Z,3.30
2022-12-06T06:32:10.612Z,3.30
2022-12-06T06:33:13.698Z,3.40
2022-12-06T06:34:17.100Z,3.40
2022-12-06T06:35:19.724Z,3.40
2022-12-06T06:36:23.274Z,3.30
2022-12-06T06:37:26.066Z,3.30
2022-12-06T06:38:29.728Z,3.30
2022-12-06T06:39:32.062Z,3.70
2022-12-06T06:40:37.137Z,3.30
2022-12-06T06:41:39.512Z,3.40
2022-12-06T06:42:43.144Z,3.40
2022-12-06T06:43:45.610Z,3.40
2022-12-06T06:44:48.937Z,3.40
2022-12-06T06:45:59.691Z,3.40
2022-12-06T06:47:03.200Z,3.30
2022-12-06T06:48:05.831Z,3.20
2022-12-06T06:49:09.709Z,3.20
2022-12-06T06:50:13.410Z,3.20
2022-12-06T06:51:18.230Z,3.20
2022-12-06T06:52:21.881Z,2.80
2022-12-06T06:53:25.261Z,3.20
2022-12-06T06:54:28.808Z,3.20
2022-12-06T06:55:31.164Z,4.90
2022-12-06T06:56:35.981Z,3.20
2022-12-06T06:57:41.455Z,3.20
2022-12-06T06:58:45.112Z,3.20
2022-12-06T06:59:47.581Z,3.20
2022-12-06T07:00:55.313Z,3.30
2022-12-06T07:01:57.988Z,3.30
2022-12-06T07:03:01.480Z,3.20
2022-12-06T07:04:04.093Z,3.20
2022-12-06T07:05:14.172Z,3.20
2022-12-06T07:06:20.451Z,3.10
2022-12-06T07:07:22.790Z,3.10
2022-12-06T07:08:27.598Z,3.10
2022-12-06T07:09:37.500Z,3.10
2022-12-06T07:10:40.933Z,3.10
2022-12-06T07:11:50.360Z,4.70
2022-12-06T07:12:54.320Z,3.10
2022-12-06T07:13:57.611Z,3.20
2022-12-06T07:15:03.416Z,3.20
2022-12-06T07:16:08.618Z,3.30
2022-12-06T07:17:11.948Z,3.30
2022-12-06T07:18:18.729Z,3.40
2022-12-06T07:19:26.620Z,3.40
2022-12-06T07:20:29.445Z,3.40
2022-12-06T07:21:32.823Z,3.30
2022-12-06T07:22:35.143Z,3.30
2022-12-06T07:23:41.547Z,3.20
2022-12-06T07:24:50.737Z,3.30
2022-12-06T07:26:07.461Z,3.30
2022-12-06T07:27:12.086Z,3.30
2022-12-06T07:28:14.677Z,3.20
2022-12-06T07:29:18.389Z,3.30
2022-12-06T07:30:27.235Z,2.70
2022-12-06T07:31:32.023Z,3.30
2022-12-06T07:32:36.934Z,3.30
2022-12-06T07:33:39.512Z,3.40
2022-12-06T07:34:42.808Z,3.40
2022-12-06T07:36:13.954Z,3.40
2022-12-06T07:37:13.152Z,3.40
2022-12-06T07:38:19.811Z,3.30
2022-12-06T07:39:23.927Z,2.40
2022-12-06T07:40:48.320Z,3.20
2022-12-06T07:42:07.867Z,3.30
2022-12-06T07:43:36.424Z,3.20
2022-12-06T07:45:01.611Z,3.00
2022-12-06T07:46:12.016Z,3.10
2022-12-06T07:47:19.692Z,3.10
2022-12-06T07:48:28.433Z,3.00
2022-12-06T07:49:32.265Z,1.70
2022-12-06T07:50:35.511Z,3.00
2022-12-06T07:51:40.261Z,3.00
2022-12-06T07:52:44.154Z,2.70
2022-12-06T07:53:50.923Z,3.00
2022-12-06T07:54:54.571Z,3.10
2022-12-06T07:55:56.875Z,3.10
2022-12-06T07:57:00.264Z,3.40
2022-12-06T07:58:03.584Z,3.10
2022-12-06T07:59:07.573Z,3.10
2022-12-06T08:00:14.278Z,3.20
2022-12-06T08:01:16.710Z,3.10
2022-12-06T08:02:22.296Z,3.20
2022-12-06T08:03:27.094Z,3.20
2022-12-06T08:04:30.403Z,3.30
2022-12-06T08:05:32.936Z,3.20
2022-12-06T08:06:37.100Z,3.20
2022-12-06T08:07:39.724Z,3.20
2022-12-06T08:08:43.183Z,3.20
2022-12-06T08:09:46.886Z,3.10
2022-12-06T08:10:49.539Z,3.40
2022-12-06T08:11:52.952Z,3.10
2022-12-06T08:12:55.262Z,2.00
2022-12-06T08:13:58.847Z,3.20
2022-12-06T08:15:03.748Z,3.20
2022-12-06T08:16:07.677Z,3.20
2022-12-06T08:17:11.017Z,3.20
2022-12-06T08:18:13.345Z,3.30
2022-12-06T08:19:19.066Z,3.30
2022-12-06T08:20:22.295Z,3.30
2022-12-06T08:21:26.551Z,3.20
2022-12-06T08:22:30.194Z,3.20
2022-12-06T08:23:34.607Z,3.20
2022-12-06T08:24:38.164Z,3.10
2022-12-06T08:25:40.651Z,3.10
2022-12-06T08:26:43.996Z,3.10
2022-12-06T08:27:47.488Z,3.60
2022-12-06T08:28:52.408Z,4.50
2022-12-06T08:29:58.097Z,3.20
2022-12-06T08:31:06.708Z,3.30
2022-12-06T08:32:10.407Z,3.30
2022-12-06T08:33:12.814Z,3.40
2022-12-06T08:34:16.778Z,3.40
2022-12-06T08:35:19.112Z,3.40
2022-12-06T08:36:25.369Z,3.50
2022-12-06T08:37:27.787Z,4.50
2022-12-06T08:38:31.123Z,3.50
2022-12-06T08:39:34.396Z,3.40
2022-12-06T08:40:36.921Z,3.40
2022-12-06T08:41:58.628Z,3.40
2022-12-06T08:43:01.217Z,3.40
2022-12-06T08:44:06.346Z,3.30
2022-12-06T08:45:10.547Z,3.30
2022-12-06T08:46:14.244Z,3.30
2022-12-06T08:47:17.593Z,3.30
2022-12-06T08:48:20.275Z,3.30
2022-12-06T08:49:28.604Z,3.30
2022-12-06T08:50:32.114Z,3.30
2022-12-06T08:51:36.389Z,3.30
2022-12-06T08:52:47.512Z,3.30
2022-12-06T08:53:49.925Z,3.30
2022-12-06T08:54:53.296Z,3.40
2022-12-06T08:56:01.897Z,3.50
2022-12-06T08:57:06.344Z,3.40
2022-12-06T08:58:09.988Z,3.40
2022-12-06T08:59:12.782Z,3.30
2022-12-06T09:00:17.404Z,3.40
2022-12-06T09:01:25.702Z,3.40
2022-12-06T09:02:30.034Z,3.40
2022-12-06T09:03:32.425Z,3.40
2022-12-06T09:04:35.863Z,3.40
2022-12-06T09:05:38.209Z,3.40
2022-12-06T09:06:44.221Z,3.30
2022-12-06T09:07:47.539Z,3.30
2022-12-06T09:08:50.698Z,3.30
2022-12-06T09:09:55.668Z,3.30
2022-12-06T09:10:58.107Z,3.30
2022-12-06T09:12:01.378Z,3.30
2022-12-06T09:13:03.760Z,3.30
2022-12-06T09:14:10.047Z,3.30
2022-12-06T09:15:13.461Z,3.30
2022-12-06T09:16:22.110Z,3.40
2022-12-06T09:17:29.923Z,3.40
2022-12-06T09:18:33.379Z,3.30
2022-12-06T09:19:36.991Z,3.40
2022-12-06T09:20:40.489Z,3.40
2022-12-06T09:21:46.512Z,3.40
2022-12-06T09:22:49.905Z,3.30
2022-12-06T09:23:57.801Z,3.30
2022-12-06T09:25:01.257Z,3.30
2022-12-06T09:26:10.007Z,3.40
2022-12-06T09:27:17.759Z,3.40
2022-12-06T09:28:20.292Z,3.40
2022-12-06T09:29:24.263Z,3.50
2022-12-06T09:30:35.834Z,3.50
2022-12-06T09:31:41.118Z,3.60
2022-12-06T09:32:45.957Z,3.50
2022-12-06T09:33:49.896Z,3.50
2022-12-06T09:34:55.448Z,3.50
2022-12-06T09:36:02.421Z,3.60
2022-12-06T09:37:13.211Z,3.60
2022-12-06T09:38:15.901Z,3.60
2022-12-06T09:39:25.021Z,3.60
2022-12-06T09:40:39.828Z,3.60
2022-12-06T09:42:14.216Z,3.60
2022-12-06T09:43:41.136Z,3.60
2022-12-06T09:45:08.694Z,3.60
2022-12-06T09:46:30.070Z,4.10
2022-12-06T09:47:51.904Z,3.70
2022-12-06T09:49:12.937Z,4.00
2022-12-06T09:50:30.612Z,3.80
2022-12-06T09:51:57.245Z,3.70
2022-12-06T09:53:19.509Z,3.70
2022-12-06T09:54:39.696Z,3.70
2022-12-06T09:55:58.141Z,3.60
2022-12-06T09:57:13.960Z,3.60
2022-12-06T09:58:34.873Z,3.50
2022-12-06T09:59:51.101Z,3.50
2022-12-06T10:01:09.037Z,3.50
2022-12-06T10:02:38.178Z,3.60
2022-12-06T10:04:01.354Z,3.50
2022-12-06T10:05:31.291Z,3.50
2022-12-06T10:06:45.011Z,3.60
2022-12-06T10:08:01.981Z,3.60
2022-12-06T10:09:23.259Z,3.50
2022-12-06T10:10:43.478Z,3.70
2022-12-06T10:12:02.655Z,3.60
2022-12-06T10:13:19.865Z,3.70
2022-12-06T10:14:39.655Z,3.70
2022-12-06T10:15:58.668Z,3.80
2022-12-06T10:17:13.988Z,3.80
2022-12-06T10:18:33.786Z,3.80
2022-12-06T10:19:57.028Z,3.80
2022-12-06T10:21:11.020Z,3.70
2022-12-06T10:22:33.052Z,3.80
2022-12-06T10:24:01.941Z,3.80
2022-12-06T10:25:15.355Z,3.80
2022-12-06T10:26:25.960Z,3.90
2022-12-06T10:27:38.172Z,3.90
2022-12-06T10:28:46.371Z,4.00
2022-12-06T10:29:59.862Z,4.00
2022-12-06T10:31:14.195Z,4.00
2022-12-06T10:32:20.497Z,4.00
2022-12-06T10:33:39.345Z,4.10
2022-12-06T10:34:54.757Z,4.10
2022-12-06T10:36:04.646Z,4.10
2022-12-06T10:37:21.043Z,4.60
2022-12-06T10:38:34.157Z,5.00
2022-12-06T10:39:51.886Z,4.90
2022-12-06T10:41:10.015Z,4.80
2022-12-06T10:42:25.489Z,4.70
2022-12-06T10:43:39.216Z,4.60
2022-12-06T10:44:52.613Z,4.60
2022-12-06T10:46:27.402Z,4.50
2022-12-06T10:47:39.945Z,4.50
2022-12-06T10:48:52.989Z,4.50
2022-12-06T10:50:07.317Z,5.00
2022-12-06T10:51:16.890Z,4.60
2022-12-06T10:52:39.582Z,5.40
2022-12-06T10:53:50.033Z,4.50
2022-12-06T10:55:05.597Z,4.50
2022-12-06T10:56:19.850Z,4.50
2022-12-06T10:57:33.720Z,4.50
2022-12-06T10:58:46.817Z,4.40
2022-12-06T11:00:03.400Z,4.40
2022-12-06T11:01:17.492Z,4.40
2022-12-06T11:02:30.419Z,4.40
2022-12-06T11:03:40.993Z,4.40
2022-12-06T11:04:48.177Z,4.40
2022-12-06T11:05:58.798Z,4.40
2022-12-06T11:07:13.530Z,4.30
2022-12-06T11:08:22.786Z,4.30
2022-12-06T11:09:39.866Z,4.30
2022-12-06T11:10:46.886Z,4.20
2022-12-06T11:11:51.494Z,4.20
2022-12-06T11:13:03.468Z,4.20
2022-12-06T11:14:23.653Z,4.30
2022-12-06T11:15:33.766Z,4.30
2022-12-06T11:16:42.245Z,4.30
2022-12-06T11:17:50.718Z,4.00
2022-12-06T11:19:01.771Z,3.90
2022-12-06T11:20:22.664Z,5.00
2022-12-06T11:21:34.420Z,5.70
2022-12-06T11:22:46.969Z,5.70
2022-12-06T11:24:00.106Z,5.70
2022-12-06T11:25:13.629Z,5.50
2022-12-06T11:26:31.446Z,5.20
2022-12-06T11:27:41.118Z,5.00
2022-12-06T11:28:55.594Z,4.90
2022-12-06T11:29:59.620Z,4.80
2022-12-06T11:31:12.723Z,4.70
2022-12-06T11:32:19.137Z,4.60
2022-12-06T11:33:30.390Z,4.60
2022-12-06T11:34:43.731Z,4.50
2022-12-06T11:35:49.157Z,4.50
2022-12-06T11:37:00.424Z,4.50
2022-12-06T11:38:08.666Z,4.50
2022-12-06T11:39:13.747Z,4.50
2022-12-06T11:40:27.239Z,4.60
2022-12-06T11:41:36.231Z,4.60
2022-12-06T11:42:39.456Z,4.60
2022-12-06T11:43:43.387Z,4.40
2022-12-06T11:44:54.257Z,4.40
2022-12-06T11:45:58.778Z,5.80
2022-12-06T11:47:04.749Z,5.60
2022-12-06T11:48:16.453Z,5.90
2022-12-06T11:49:29.432Z,5.80
2022-12-06T11:50:36.097Z,5.70
2022-12-06T11:51:41.977Z,5.40
2022-12-06T11:52:54.647Z,5.30
2022-12-06T11:54:06.484Z,5.20
2022-12-06T11:55:20.073Z,5.10
2022-12-06T11:56:27.920Z,5.10
2022-12-06T11:57:35.970Z,5.70
2022-12-06T11:58:47.071Z,4.90
2022-12-06T12:00:13.022Z,5.00
2022-12-06T12:01:16.681Z,4.90
2022-12-06T12:02:31.836Z,4.80
2022-12-06T12:03:38.442Z,4.80
2022-12-06T12:04:45.048Z,4.70
2022-12-06T12:05:47.517Z,4.70
2022-12-06T12:06:57.548Z,4.70
2022-12-06T12:08:06.636Z,4.80
2022-12-06T12:09:19.486Z,6.00
2022-12-06T12:10:34.412Z,4.60
2022-12-06T12:11:42.184Z,4.60
2022-12-06T12:13:07.155Z,3.80
2022-12-06T12:14:27.709Z,4.60
2022-12-06T12:15:31.434Z,4.60
2022-12-06T12:16:39.667Z,4.60
2022-12-06T12:17:50.382Z,4.60
2022-12-06T12:18:59.784Z,4.70
2022-12-06T12:20:08.486Z,5.20
2022-12-06T12:21:11.810Z,5.30
2022-12-06T12:22:23.756Z,5.30
2022-12-06T12:23:34.148Z,5.10
2022-12-06T12:25:19.979Z,5.00
2022-12-06T12:26:19.495Z,4.80
2022-12-06T12:27:42.728Z,4.80
2022-12-06T12:28:48.355Z,4.70
2022-12-06T12:30:22.855Z,4.80
2022-12-06T12:31:27.273Z,4.70
2022-12-06T12:32:30.014Z,4.70
2022-12-06T12:33:33.770Z,4.80
2022-12-06T12:34:42.971Z,4.70
2022-12-06T12:35:48.288Z,4.70
2022-12-06T12:36:55.098Z,4.80
2022-12-06T12:38:04.424Z,4.70
2022-12-06T12:39:29.896Z,4.60
2022-12-06T12:40:39.325Z,4.60
2022-12-06T12:41:45.347Z,4.60
2022-12-06T12:42:47.983Z,4.10
2022-12-06T12:44:35.449Z,4.50
2022-12-06T12:45:26.866Z,4.50
2022-12-06T12:46:32.419Z,4.30
2022-12-06T12:47:36.448Z,4.40
2022-12-06T12:48:42.273Z,4.40
2022-12-06T12:50:18.735Z,4.30
2022-12-06T12:51:28.889Z,4.40
2022-12-06T12:52:38.326Z,4.40
2022-12-06T12:53:45.942Z,4.70
2022-12-06T12:55:01.311Z,4.40
2022-12-06T12:56:10.093Z,4.40
2022-12-06T12:57:15.103Z,4.40
2022-12-06T12:58:18.600Z,5.10
2022-12-06T12:59:24.336Z,4.40
2022-12-06T13:00:33.760Z,4.50
2022-12-06T13:01:42.362Z,4.50
2022-12-06T13:02:51.296Z,4.50
2022-12-06T13:04:00.885Z,4.50
2022-12-06T13:05:32.041Z,4.50
2022-12-06T13:06:44.163Z,4.50
2022-12-06T13:07:51.523Z,4.40
2022-12-06T13:09:03.070Z,4.40
2022-12-06T13:10:16.784Z,4.40
2022-12-06T13:11:21.564Z,4.40
2022-12-06T13:12:31.427Z,4.50
2022-12-06T13:13:39.698Z,4.30
2022-12-06T13:14:57.731Z,4.50
2022-12-06T13:16:05.995Z,4.50
2022-12-06T13:17:14.623Z,4.50
2022-12-06T13:18:23.640Z,4.50
2022-12-06T13:19:36.675Z,4.50
2022-12-06T13:20:42.262Z,4.50
2022-12-06T13:21:54.296Z,4.60
2022-12-06T13:23:03.224Z,4.60
2022-12-06T13:24:17.832Z,4.50
2022-12-06T13:25:22.999Z,4.60
2022-12-06T13:26:30.898Z,4.50
2022-12-06T13:27:39.245Z,4.60
2022-12-06T13:28:51.977Z,4.60
2022-12-06T13:30:02.363Z,4.60
2022-12-06T13:31:14.213Z,4.50
2022-12-06T13:32:22.576Z,4.60
2022-12-06T13:33:31.265Z,4.60
2022-12-06T13:34:39.507Z,4.60
2022-12-06T13:35:52.573Z,4.60
2022-12-06T13:36:56.336Z,4.60
2022-12-06T13:38:02.225Z,4.60
2022-12-06T13:39:38.969Z,5.60
2022-12-06T13:40:52.000Z,4.60
2022-12-06T13:42:16.168Z,4.60
2022-12-06T13:43:56.723Z,4.60
2022-12-06T13:45:03.063Z,4.50
2022-12-06T13:46:29.486Z,4.50
2022-12-06T13:47:51.602Z,4.50
2022-12-06T13:48:57.534Z,4.50
2022-12-06T13:50:03.089Z,4.50
2022-12-06T13:51:11.200Z,4.40
2022-12-06T13:52:52.870Z,4.40
2022-12-06T13:54:38.655Z,4.00
2022-12-06T13:56:02.145Z,4.40
2022-12-06T13:57:29.840Z,4.40
2022-12-06T13:58:50.859Z,4.40
2022-12-06T13:59:54.619Z,4.40
2022-12-06T14:00:57.729Z,4.40
2022-12-06T14:02:01.419Z,4.40
2022-12-06T14:03:40.835Z,4.30
2022-12-06T14:04:44.501Z,4.20
2022-12-06T14:06:13.890Z,4.20
2022-12-06T14:07:33.969Z,4.20
2022-12-06T14:08:39.484Z,4.30
2022-12-06T14:09:48.287Z,4.70
2022-12-06T14:10:50.835Z,4.80
2022-12-06T14:11:56.063Z,4.80
2022-12-06T14:13:00.328Z,4.90
2022-12-06T14:14:09.240Z,5.00
2022-12-06T14:15:20.556Z,5.40
2022-12-06T14:16:31.857Z,5.40
2022-12-06T14:19:17.509Z,5.70
2022-12-06T14:20:22.083Z,5.30
2022-12-06T14:21:30.721Z,6.30
2022-12-06T14:22:36.354Z,5.20
2022-12-06T14:23:48.376Z,5.10
2022-12-06T14:25:01.411Z,5.00
2022-12-06T14:26:17.488Z,5.00
2022-12-06T14:27:26.043Z,4.90
2022-12-06T14:28:36.208Z,4.90
2022-12-06T14:29:40.004Z,4.80
2022-12-06T14:30:46.252Z,4.00
2022-12-06T14:31:52.026Z,3.40
2022-12-06T14:32:58.356Z,4.70
2022-12-06T14:34:00.815Z,4.60
2022-12-06T14:35:07.889Z,4.60
2022-12-06T14:36:20.528Z,4.80
2022-12-06T14:37:25.373Z,4.80
2022-12-06T14:38:32.792Z,4.60
2022-12-06T14:39:39.648Z,4.60
2022-12-06T14:41:16.996Z,4.60
2022-12-06T14:42:40.499Z,4.70
2022-12-06T14:43:49.372Z,3.70
2022-12-06T14:45:01.819Z,4.70
2022-12-06T14:46:08.684Z,4.60
2022-12-06T14:47:18.731Z,4.60
2022-12-06T14:48:24.284Z,4.70
2022-12-06T14:49:48.587Z,4.70
2022-12-06T14:51:00.186Z,4.60
2022-12-06T14:52:03.848Z,4.60
2022-12-06T14:53:12.788Z,4.60
2022-12-06T14:54:20.374Z,4.60
2022-12-06T14:55:24.121Z,4.60
2022-12-06T14:56:34.742Z,4.60
2022-12-06T14:57:47.988Z,4.60
2022-12-06T14:58:52.133Z,3.30
2022-12-06T15:00:27.122Z,4.60
2022-12-06T15:01:32.750Z,4.60
2022-12-06T15:02:41.103Z,4.60
2022-12-06T15:03:45.725Z,4.60
2022-12-06T15:04:48.742Z,4.60
2022-12-06T15:06:14.457Z,4.50
2022-12-06T15:07:33.768Z,4.50
2022-12-06T15:08:39.459Z,4.50
2022-12-06T15:09:46.242Z,3.00
2022-12-06T15:10:57.696Z,4.40
2022-12-06T15:12:40.289Z,4.40
2022-12-06T15:14:16.342Z,4.60
2022-12-06T15:15:38.833Z,4.50
2022-12-06T15:16:44.131Z,4.50
2022-12-06T15:17:47.573Z,4.60
2022-12-06T15:18:59.410Z,4.60
2022-12-06T15:20:16.631Z,4.60
2022-12-06T15:21:20.295Z,4.60
2022-12-06T15:22:27.012Z,4.50
2022-12-06T15:23:39.565Z,4.50
2022-12-06T15:24:44.933Z,4.50
2022-12-06T15:25:51.376Z,5.60